Terminal Aerodrome Forecast
Issued by NWS

Home | Current Version | Previous Version | Text Only | Print | Product List | Glossary On
Versions: 1 2 3 4 5 6 7 8 9 10 11 12 13 14 15 16 17 18 19 20 21 22 23 24 25
573
FTUS41 KCAR 282029 AAB
TAFFVE
TAF AMD
KFVE 282029Z 2820/2918 14007KT 1SM -SN OVC010
     FM282200 13006KT 3SM -SN OVC012
     FM290100 13004KT P6SM VCSH OVC008
     FM291200 VRB03KT P6SM BKN010=

USA.gov is the U.S. government's official web portal to all federal, state and local government web resources and services.